createdAt,value
2022-08-17T00:02:21.772Z,67.40
2022-08-17T00:05:32.746Z,67.50
2022-08-17T00:08:40.303Z,67.60
2022-08-17T00:12:40.346Z,67.90
2022-08-17T00:15:14.596Z,67.40
2022-08-17T00:19:01.912Z,68.20
2022-08-17T00:21:59.980Z,67.80
2022-08-17T00:25:15.923Z,68.00
2022-08-17T00:28:20.877Z,68.00
2022-08-17T00:31:26.373Z,67.90
2022-08-17T00:34:29.668Z,68.10
2022-08-17T00:37:35.428Z,68.00
2022-08-17T00:40:44.934Z,68.10
2022-08-17T00:43:54.117Z,68.00
2022-08-17T00:46:58.682Z,67.90
2022-08-17T00:50:02.186Z,68.30
2022-08-17T00:53:06.535Z,69.80
2022-08-17T00:56:15.611Z,68.40
2022-08-17T00:59:24.178Z,68.60
2022-08-17T01:02:34.901Z,68.60
2022-08-17T01:05:49.399Z,69.30
2022-08-17T01:08:57.270Z,68.60
2022-08-17T01:12:01.912Z,68.80
2022-08-17T01:15:05.717Z,68.90
2022-08-17T01:18:13.464Z,68.80
2022-08-17T01:21:27.743Z,68.90
2022-08-17T01:24:33.709Z,69.10
2022-08-17T01:27:39.033Z,69.30
2022-08-17T01:30:59.003Z,67.40
2022-08-17T01:34:08.629Z,69.10
2022-08-17T01:37:13.899Z,69.30
2022-08-17T01:40:27.022Z,69.60
2022-08-17T01:43:41.127Z,70.10
2022-08-17T01:46:44.401Z,70.20
2022-08-17T01:49:47.594Z,69.90
2022-08-17T01:52:56.692Z,70.10
2022-08-17T01:56:07.730Z,70.50
2022-08-17T01:59:11.651Z,70.70
2022-08-17T02:02:31.132Z,70.40
2022-08-17T02:05:35.143Z,70.90
2022-08-17T02:08:57.047Z,70.50
2022-08-17T02:12:37.100Z,70.60
2022-08-17T02:15:27.174Z,70.90
2022-08-17T02:18:30.520Z,70.90
2022-08-17T02:21:34.045Z,70.90
2022-08-17T02:25:00.319Z,70.90
2022-08-17T02:28:05.846Z,71.10
2022-08-17T02:31:12.477Z,71.00
2022-08-17T02:34:16.813Z,71.30
2022-08-17T02:37:20.334Z,71.70
2022-08-17T02:40:35.081Z,70.30
2022-08-17T02:43:41.267Z,71.40
2022-08-17T02:46:44.635Z,71.50
2022-08-17T02:49:54.239Z,71.60
2022-08-17T02:53:02.346Z,71.80
2022-08-17T02:56:06.595Z,72.20
2022-08-17T02:59:11.307Z,72.00
2022-08-17T03:02:14.534Z,72.20
2022-08-17T03:05:23.395Z,72.20
2022-08-17T03:08:27.195Z,72.50
2022-08-17T03:11:30.469Z,72.50
2022-08-17T03:14:41.263Z,72.60
2022-08-17T03:17:46.016Z,72.80
2022-08-17T03:20:49.231Z,72.80
2022-08-17T03:23:54.339Z,72.90
2022-08-17T03:26:58.225Z,73.30
2022-08-17T03:30:03.398Z,72.80
2022-08-17T03:33:10.997Z,73.30
2022-08-17T03:36:14.978Z,73.40
2022-08-17T03:39:18.211Z,72.90
2022-08-17T03:42:31.307Z,73.80
2022-08-17T03:45:57.613Z,74.00
2022-08-17T03:49:18.570Z,74.20
2022-08-17T03:52:39.507Z,73.10
2022-08-17T03:56:00.501Z,73.40
2022-08-17T03:59:03.911Z,73.70
2022-08-17T04:02:15.200Z,73.70
2022-08-17T04:05:18.561Z,75.50
2022-08-17T04:08:22.093Z,74.00
2022-08-17T04:11:25.354Z,74.20
2022-08-17T04:14:31.109Z,74.20
2022-08-17T04:17:35.744Z,75.30
2022-08-17T04:20:39.026Z,74.50
2022-08-17T04:23:42.262Z,75.10
2022-08-17T04:26:52.981Z,75.00
2022-08-17T04:29:58.478Z,74.60
2022-08-17T04:33:08.606Z,74.50
2022-08-17T04:36:14.658Z,74.80
2022-08-17T04:39:17.947Z,75.40
2022-08-17T04:42:20.120Z,74.80
2022-08-17T04:45:23.830Z,74.90
2022-08-17T04:48:36.381Z,75.00
2022-08-17T04:51:54.644Z,75.30
2022-08-17T04:55:03.630Z,75.00
2022-08-17T04:58:07.324Z,75.50
2022-08-17T05:01:10.824Z,75.90
2022-08-17T05:04:33.221Z,76.80
2022-08-17T05:07:38.502Z,78.40
2022-08-17T05:10:45.339Z,77.20
2022-08-17T05:13:50.729Z,77.00
2022-08-17T05:16:53.938Z,76.50
2022-08-17T05:19:58.710Z,76.90
2022-08-17T05:23:07.080Z,75.40
2022-08-17T05:26:15.235Z,73.60
2022-08-17T05:29:35.250Z,74.10
2022-08-17T05:32:40.471Z,73.10
2022-08-17T05:35:48.753Z,72.00
2022-08-17T05:38:51.920Z,71.30
2022-08-17T05:41:55.103Z,70.50
2022-08-17T05:44:59.422Z,69.40
2022-08-17T05:48:03.106Z,68.40
2022-08-17T05:51:24.476Z,67.90
2022-08-17T05:54:43.609Z,66.70
2022-08-17T05:58:12.335Z,65.60
2022-08-17T06:01:33.236Z,64.00
2022-08-17T06:05:03.599Z,63.50
2022-08-17T06:08:22.832Z,62.70
2022-08-17T06:11:36.699Z,62.60
2022-08-17T06:14:59.360Z,62.10
2022-08-17T06:18:13.727Z,61.20
2022-08-17T06:21:23.735Z,61.60
2022-08-17T06:24:45.413Z,60.60
2022-08-17T06:27:55.250Z,59.80
2022-08-17T06:31:08.104Z,59.80
2022-08-17T06:34:13.913Z,59.00
2022-08-17T06:38:05.028Z,58.60
2022-08-17T06:41:22.624Z,58.30
2022-08-17T06:44:51.457Z,57.40
2022-08-17T06:48:05.722Z,57.70
2022-08-17T06:51:16.999Z,58.30
2022-08-17T06:54:32.773Z,58.90
2022-08-17T06:57:43.364Z,57.70
2022-08-17T07:00:49.521Z,57.80
2022-08-17T07:04:11.501Z,58.00
2022-08-17T07:07:48.703Z,57.70
2022-08-17T07:10:58.687Z,59.20
2022-08-17T07:14:25.051Z,56.70
2022-08-17T07:17:46.636Z,56.00
2022-08-17T07:20:58.925Z,56.40
2022-08-17T07:24:30.021Z,54.40
2022-08-17T07:27:40.238Z,54.30
2022-08-17T07:30:51.354Z,53.60
2022-08-17T07:34:08.412Z,53.90
2022-08-17T07:37:12.675Z,52.60
2022-08-17T07:40:37.556Z,53.90
2022-08-17T07:43:52.331Z,53.10
2022-08-17T07:47:15.900Z,52.00
2022-08-17T07:50:28.914Z,52.60
2022-08-17T07:53:32.162Z,52.00
2022-08-17T07:56:46.004Z,52.50
2022-08-17T08:00:16.273Z,52.90
2022-08-17T08:03:27.119Z,53.80
2022-08-17T08:06:32.147Z,53.00
2022-08-17T08:09:42.125Z,53.20
2022-08-17T08:12:48.447Z,53.20
2022-08-17T08:16:22.609Z,53.30
2022-08-17T08:19:29.231Z,53.80
2022-08-17T08:22:46.047Z,53.40
2022-08-17T08:26:05.040Z,53.40
2022-08-17T08:29:22.494Z,53.50
2022-08-17T08:32:47.994Z,53.30
2022-08-17T08:36:04.764Z,53.40
2022-08-17T08:39:34.863Z,53.50
2022-08-17T08:42:50.409Z,53.20
2022-08-17T08:46:00.682Z,53.10
2022-08-17T08:50:04.300Z,53.20
2022-08-17T08:53:31.982Z,53.30
2022-08-17T08:56:59.194Z,52.40
2022-08-17T09:00:15.748Z,52.80
2022-08-17T09:03:53.199Z,52.50
2022-08-17T09:07:17.239Z,52.70
2022-08-17T09:10:30.776Z,53.50
2022-08-17T09:13:47.134Z,53.70
2022-08-17T09:17:07.408Z,53.60
2022-08-17T09:20:27.436Z,53.60
2022-08-17T09:23:38.278Z,53.50
2022-08-17T09:26:52.452Z,53.80
2022-08-17T09:30:02.510Z,53.90
2022-08-17T09:33:11.520Z,53.80
2022-08-17T09:36:29.260Z,53.90
2022-08-17T09:39:46.497Z,54.00
2022-08-17T09:42:56.627Z,54.30
2022-08-17T09:46:08.247Z,54.00
2022-08-17T09:49:25.117Z,54.00
2022-08-17T09:52:31.535Z,54.30
2022-08-17T09:55:53.421Z,54.60
2022-08-17T09:59:22.447Z,53.70
2022-08-17T10:03:01.471Z,53.90
2022-08-17T10:06:13.723Z,53.10
2022-08-17T10:09:36.677Z,53.70
2022-08-17T10:12:47.634Z,53.50
2022-08-17T10:16:07.762Z,54.00
2022-08-17T10:19:22.255Z,53.00
2022-08-17T10:22:54.813Z,52.90
2022-08-17T10:26:17.569Z,52.90
2022-08-17T10:29:29.918Z,52.70
2022-08-17T10:32:55.170Z,51.80
2022-08-17T10:36:12.235Z,52.20
2022-08-17T10:39:31.896Z,52.40
2022-08-17T10:42:44.497Z,52.50
2022-08-17T10:46:09.203Z,52.60
2022-08-17T10:49:34.165Z,52.80
2022-08-17T10:52:52.782Z,52.30
2022-08-17T10:56:23.777Z,52.50
2022-08-17T10:59:51.812Z,52.00
2022-08-17T11:02:57.458Z,51.60
2022-08-17T11:06:15.212Z,52.10
2022-08-17T11:09:53.370Z,52.10
2022-08-17T11:13:08.522Z,51.10
2022-08-17T11:16:38.748Z,51.60
2022-08-17T11:20:19.290Z,50.90
2022-08-17T11:24:07.615Z,51.60
2022-08-17T11:27:28.351Z,51.10
2022-08-17T11:30:52.628Z,51.00
2022-08-17T11:34:05.975Z,50.90
2022-08-17T11:37:45.948Z,51.10
2022-08-17T11:41:21.087Z,51.00
2022-08-17T11:44:40.749Z,49.90
2022-08-17T11:48:27.877Z,50.70
2022-08-17T11:52:11.333Z,50.70
2022-08-17T11:56:04.219Z,50.70
2022-08-17T12:00:00.239Z,50.80
2022-08-17T12:03:55.449Z,50.50
2022-08-17T12:07:08.201Z,48.30
2022-08-17T12:10:16.131Z,50.20
2022-08-17T12:13:21.573Z,50.40
2022-08-17T12:16:26.821Z,50.10
2022-08-17T12:19:33.867Z,50.00
2022-08-17T12:22:56.528Z,50.50
2022-08-17T12:26:12.946Z,50.90
2022-08-17T12:29:35.938Z,50.80
2022-08-17T12:32:47.600Z,51.00
2022-08-17T12:36:00.094Z,52.10
2022-08-17T12:39:13.955Z,53.00
2022-08-17T12:42:26.557Z,53.20
2022-08-17T12:45:33.644Z,53.50
2022-08-17T12:48:38.411Z,53.60
2022-08-17T12:51:45.924Z,53.40
2022-08-17T12:54:56.176Z,54.20
2022-08-17T12:58:00.849Z,53.40
2022-08-17T13:01:09.790Z,53.10
2022-08-17T13:04:17.186Z,53.00
2022-08-17T13:07:46.518Z,53.30
2022-08-17T13:10:57.671Z,52.70
2022-08-17T13:14:11.726Z,52.80
2022-08-17T13:17:27.544Z,52.30
2022-08-17T13:20:33.364Z,52.00
2022-08-17T13:23:36.713Z,52.00
2022-08-17T13:26:46.642Z,51.60
2022-08-17T13:29:55.715Z,51.60
2022-08-17T13:33:00.376Z,51.70
2022-08-17T13:36:11.391Z,52.40
2022-08-17T13:39:26.491Z,51.90
2022-08-17T13:42:51.780Z,51.60
2022-08-17T13:46:10.746Z,51.30
2022-08-17T13:49:23.214Z,49.90
2022-08-17T13:52:41.071Z,51.30
2022-08-17T13:55:51.676Z,51.10
2022-08-17T13:59:00.277Z,51.20
2022-08-17T14:02:05.721Z,51.20
2022-08-17T14:05:09.276Z,51.70
2022-08-17T14:08:18.762Z,51.30
2022-08-17T14:11:24.006Z,52.90
2022-08-17T14:14:29.224Z,51.50
2022-08-17T14:17:38.089Z,51.40
2022-08-17T14:20:42.250Z,51.40
2022-08-17T14:23:54.570Z,51.50
2022-08-17T14:27:01.393Z,51.10
2022-08-17T14:30:07.700Z,51.70
2022-08-17T14:33:10.914Z,51.20
2022-08-17T14:36:14.187Z,51.80
2022-08-17T14:39:21.738Z,52.10
2022-08-17T14:42:26.268Z,52.40
2022-08-17T14:45:31.908Z,52.40
2022-08-17T14:48:38.536Z,52.50
2022-08-17T14:51:43.714Z,52.50
2022-08-17T14:54:51.509Z,52.60
2022-08-17T14:57:54.715Z,53.00
2022-08-17T15:00:58.558Z,53.00
2022-08-17T15:04:02.188Z,53.30
2022-08-17T15:07:07.270Z,53.90
2022-08-17T15:10:12.618Z,54.10
2022-08-17T15:13:22.625Z,54.40
2022-08-17T15:16:27.069Z,54.60
2022-08-17T15:19:30.474Z,54.50
2022-08-17T15:22:33.715Z,54.40
2022-08-17T15:25:38.347Z,54.50
2022-08-17T15:28:41.675Z,54.30
2022-08-17T15:31:45.791Z,54.10
2022-08-17T15:34:49.523Z,54.50
2022-08-17T15:37:52.701Z,54.60
2022-08-17T15:40:58.604Z,55.20
2022-08-17T15:44:02.508Z,54.90
2022-08-17T15:47:06.267Z,55.10
2022-08-17T15:50:10.709Z,55.30
2022-08-17T15:53:14.308Z,55.40
2022-08-17T15:56:19.300Z,55.20
2022-08-17T15:59:22.674Z,56.20
2022-08-17T16:03:44.312Z,55.70
2022-08-17T16:05:55.217Z,56.40
2022-08-17T16:08:59.786Z,55.60
2022-08-17T16:12:14.259Z,57.10
2022-08-17T16:15:18.751Z,56.90
2022-08-17T16:18:22.778Z,56.60
2022-08-17T16:21:31.291Z,56.40
2022-08-17T16:24:57.328Z,56.50
2022-08-17T16:28:02.272Z,56.40
2022-08-17T16:31:08.016Z,56.30
2022-08-17T16:34:17.457Z,56.40
2022-08-17T16:37:21.791Z,56.20
2022-08-17T16:40:29.061Z,55.90
2022-08-17T16:43:34.692Z,56.20
2022-08-17T16:46:38.044Z,58.00
2022-08-17T16:49:41.305Z,55.60
2022-08-17T16:52:45.623Z,56.60
2022-08-17T16:55:51.853Z,56.70
2022-08-17T16:58:56.437Z,55.50
2022-08-17T17:02:26.888Z,56.80
2022-08-17T17:05:58.654Z,56.90
2022-08-17T17:09:07.185Z,57.30
2022-08-17T17:12:19.838Z,57.40
2022-08-17T17:15:58.824Z,57.70
2022-08-17T17:19:11.898Z,58.10
2022-08-17T17:22:20.119Z,58.00
2022-08-17T17:25:33.856Z,57.80
2022-08-17T17:29:01.541Z,58.40
2022-08-17T17:32:20.857Z,58.30
2022-08-17T17:35:32.003Z,58.70
2022-08-17T17:38:44.545Z,57.20
2022-08-17T17:41:54.668Z,59.30
2022-08-17T17:45:08.538Z,59.80
2022-08-17T17:48:13.399Z,60.00
2022-08-17T17:51:55.647Z,60.50
2022-08-17T17:55:05.354Z,60.60
2022-08-17T17:58:27.323Z,60.80
2022-08-17T18:01:49.348Z,61.30
2022-08-17T18:05:08.352Z,62.40
2022-08-17T18:08:33.816Z,61.70
2022-08-17T18:12:13.132Z,61.90
2022-08-17T18:15:29.556Z,62.50
2022-08-17T18:18:39.845Z,62.20
2022-08-17T18:21:52.142Z,62.10
2022-08-17T18:24:57.276Z,62.70
2022-08-17T18:28:00.563Z,62.50
2022-08-17T18:31:16.636Z,61.50
2022-08-17T18:34:46.497Z,62.70
2022-08-17T18:37:53.857Z,62.10
2022-08-17T18:41:19.222Z,62.30
2022-08-17T18:44:29.370Z,63.10
2022-08-17T18:47:32.717Z,62.90
2022-08-17T18:50:41.574Z,62.80
2022-08-17T18:53:47.403Z,63.70
2022-08-17T18:56:55.935Z,63.30
2022-08-17T19:00:00.785Z,61.90
2022-08-17T19:03:19.983Z,63.30
2022-08-17T19:06:32.844Z,63.50
2022-08-17T19:09:44.639Z,65.40
2022-08-17T19:13:00.648Z,63.80
2022-08-17T19:16:15.788Z,63.80
2022-08-17T19:19:29.065Z,64.00
2022-08-17T19:22:53.524Z,63.70
2022-08-17T19:26:01.618Z,65.60
2022-08-17T19:29:16.271Z,63.70
2022-08-17T19:32:28.643Z,63.90
2022-08-17T19:35:45.287Z,64.00
2022-08-17T19:39:03.410Z,64.20
2022-08-17T19:42:20.212Z,64.50
2022-08-17T19:45:46.367Z,65.00
2022-08-17T19:49:03.788Z,65.20
2022-08-17T19:52:34.382Z,66.00
2022-08-17T19:55:53.524Z,65.10
2022-08-17T19:59:07.850Z,64.00
2022-08-17T20:02:28.914Z,65.00
2022-08-17T20:06:01.311Z,64.00
2022-08-17T20:09:15.216Z,65.00
2022-08-17T20:12:25.283Z,66.70
2022-08-17T20:15:35.695Z,65.20
2022-08-17T20:18:50.654Z,65.40
2022-08-17T20:21:59.887Z,67.20
2022-08-17T20:25:10.986Z,65.40
2022-08-17T20:28:27.812Z,65.60
2022-08-17T20:31:48.518Z,65.50
2022-08-17T20:35:22.432Z,66.10
2022-08-17T20:38:43.363Z,66.00
2022-08-17T20:42:12.498Z,66.00
2022-08-17T20:46:07.851Z,65.90
2022-08-17T20:49:27.829Z,65.80
2022-08-17T20:52:53.184Z,65.80
2022-08-17T20:55:57.112Z,65.90
2022-08-17T20:59:00.688Z,65.40
2022-08-17T21:02:18.441Z,64.40
2022-08-17T21:05:34.360Z,65.60
2022-08-17T21:08:45.908Z,66.00
2022-08-17T21:12:04.960Z,65.70
2022-08-17T21:15:28.581Z,66.10
2022-08-17T21:18:42.476Z,65.90
2022-08-17T21:22:04.645Z,67.50
2022-08-17T21:25:28.138Z,66.10
2022-08-17T21:28:59.938Z,67.50
2022-08-17T21:32:24.246Z,65.90
2022-08-17T21:35:47.193Z,66.60
2022-08-17T21:39:03.704Z,66.20
2022-08-17T21:42:09.341Z,66.50
2022-08-17T21:45:24.856Z,66.00
2022-08-17T21:48:31.280Z,65.80
2022-08-17T21:51:43.959Z,65.90
2022-08-17T21:54:55.791Z,65.80
2022-08-17T21:58:14.882Z,66.00
2022-08-17T22:01:26.422Z,66.30
2022-08-17T22:04:33.266Z,66.10
2022-08-17T22:07:45.394Z,66.10
2022-08-17T22:10:51.967Z,66.40
2022-08-17T22:14:05.348Z,67.00
2022-08-17T22:17:18.738Z,67.10
2022-08-17T22:20:23.500Z,66.90
2022-08-17T22:23:49.907Z,66.90
2022-08-17T22:27:06.933Z,66.60
2022-08-17T22:30:20.940Z,66.90
2022-08-17T22:33:41.847Z,66.90
2022-08-17T22:36:45.184Z,67.10
2022-08-17T22:40:01.003Z,66.60
2022-08-17T22:43:12.000Z,67.10
2022-08-17T22:46:16.570Z,66.90
2022-08-17T22:49:29.153Z,66.90
2022-08-17T22:52:56.903Z,67.20
2022-08-17T22:56:17.920Z,67.20
2022-08-17T22:59:45.531Z,67.10
2022-08-17T23:03:15.114Z,67.80
2022-08-17T23:06:18.437Z,67.80
2022-08-17T23:09:22.304Z,67.20
2022-08-17T23:12:27.761Z,66.30
2022-08-17T23:15:33.916Z,67.40
2022-08-17T23:18:37.473Z,67.50
2022-08-17T23:21:41.429Z,66.40
2022-08-17T23:24:50.564Z,67.30
2022-08-17T23:27:54.416Z,67.80
2022-08-17T23:30:59.575Z,67.00
2022-08-17T23:34:04.461Z,66.80
2022-08-17T23:37:10.950Z,66.70
2022-08-17T23:43:24.180Z,65.90
2022-08-17T23:46:30.221Z,66.40
2022-08-17T23:49:33.789Z,66.40
2022-08-17T23:52:38.524Z,66.40
2022-08-17T23:55:41.708Z,66.20
2022-08-17T23:58:45.768Z,66.10
